createdAt,value
2016-11-30T00:00:08.508Z,17.71
2016-11-30T00:00:40.812Z,17.66
2016-11-30T00:01:13.139Z,17.65
2016-11-30T00:01:45.464Z,17.71
2016-11-30T00:02:17.780Z,17.69
2016-11-30T00:02:50.103Z,17.63
2016-11-30T00:03:22.429Z,17.69
2016-11-30T00:03:54.751Z,17.65
2016-11-30T00:04:27.062Z,17.71
2016-11-30T00:04:59.392Z,17.74
2016-11-30T00:05:31.706Z,17.68
2016-11-30T00:06:04.035Z,17.71
2016-11-30T00:06:36.357Z,17.6
2016-11-30T00:07:08.658Z,17.65
2016-11-30T00:07:40.987Z,17.62
2016-11-30T00:08:13.314Z,17.63
2016-11-30T00:08:45.674Z,17.66
2016-11-30T00:09:17.989Z,17.71
2016-11-30T00:09:50.308Z,17.6
2016-11-30T00:10:22.635Z,17.69
2016-11-30T00:10:54.962Z,17.73
2016-11-30T00:11:27.273Z,17.6
2016-11-30T00:11:59.581Z,17.71
2016-11-30T00:12:31.904Z,17.66
2016-11-30T00:13:04.210Z,17.66
2016-11-30T00:13:36.512Z,17.63
2016-11-30T00:14:08.844Z,17.62
2016-11-30T00:14:41.169Z,17.71
2016-11-30T00:15:13.489Z,17.66
2016-11-30T00:15:45.816Z,17.65
2016-11-30T00:16:18.134Z,17.71
2016-11-30T00:16:50.452Z,17.69
2016-11-30T00:17:22.765Z,17.63
2016-11-30T00:17:55.075Z,17.65
2016-11-30T00:18:27.390Z,17.65
2016-11-30T00:18:59.710Z,17.6
2016-11-30T00:19:32.030Z,17.57
2016-11-30T00:20:04.360Z,17.68
2016-11-30T00:20:37.274Z,17.62
2016-11-30T00:21:09.589Z,17.58
2016-11-30T00:21:41.889Z,17.73
2016-11-30T00:22:14.208Z,17.71
2016-11-30T00:22:46.514Z,17.68
2016-11-30T00:23:18.825Z,17.62
2016-11-30T00:23:51.144Z,17.68
2016-11-30T00:24:23.467Z,17.71
2016-11-30T00:24:55.776Z,17.68
2016-11-30T00:25:28.087Z,17.81
2016-11-30T00:26:00.401Z,17.71
2016-11-30T00:26:32.708Z,17.66
2016-11-30T00:27:05.043Z,17.65
2016-11-30T00:27:37.368Z,17.6
2016-11-30T00:28:09.690Z,17.54
2016-11-30T00:28:42.001Z,17.63
2016-11-30T00:29:14.311Z,17.71
2016-11-30T00:29:46.626Z,17.68
2016-11-30T00:30:18.936Z,17.65
2016-11-30T00:30:51.258Z,17.71
2016-11-30T00:31:23.593Z,17.69
2016-11-30T00:31:55.915Z,17.73
2016-11-30T00:32:28.226Z,17.73
2016-11-30T00:33:00.542Z,17.68
2016-11-30T00:33:32.851Z,17.74
2016-11-30T00:34:05.172Z,17.71
2016-11-30T00:34:37.490Z,17.69
2016-11-30T00:35:09.802Z,17.63
2016-11-30T00:35:42.162Z,17.63
2016-11-30T00:36:14.477Z,17.71
2016-11-30T00:36:46.797Z,17.69
2016-11-30T00:37:19.123Z,17.66
2016-11-30T00:37:51.478Z,17.69
2016-11-30T00:38:23.799Z,17.68
2016-11-30T00:38:56.106Z,17.65
2016-11-30T00:39:28.427Z,17.68
2016-11-30T00:40:00.774Z,17.55
2016-11-30T00:40:33.083Z,17.63
2016-11-30T00:41:05.421Z,17.65
2016-11-30T00:41:37.741Z,17.66
2016-11-30T00:42:10.054Z,17.68
2016-11-30T00:42:42.376Z,17.69
2016-11-30T00:43:14.706Z,17.74
2016-11-30T00:43:47.021Z,17.68
2016-11-30T00:44:19.329Z,17.62
2016-11-30T00:44:51.635Z,17.65
2016-11-30T00:45:23.956Z,17.68
2016-11-30T00:45:56.276Z,17.55
2016-11-30T00:46:28.596Z,17.58
2016-11-30T00:47:00.952Z,17.66
2016-11-30T00:47:33.264Z,17.76
2016-11-30T00:48:05.582Z,17.69
2016-11-30T00:48:37.916Z,17.57
2016-11-30T00:49:10.238Z,17.66
2016-11-30T00:49:42.563Z,17.68
2016-11-30T00:50:14.880Z,17.73
2016-11-30T00:50:47.186Z,17.79
2016-11-30T00:51:19.524Z,17.63
2016-11-30T00:51:51.838Z,17.65
2016-11-30T00:52:24.156Z,17.65
2016-11-30T00:52:56.470Z,17.54
2016-11-30T00:53:28.778Z,17.68
2016-11-30T00:54:01.075Z,17.65
2016-11-30T00:54:33.426Z,17.69
2016-11-30T00:55:05.748Z,17.58
2016-11-30T00:55:38.073Z,17.63
2016-11-30T00:56:10.405Z,17.68
2016-11-30T00:56:42.711Z,17.57
2016-11-30T00:57:15.033Z,17.65
2016-11-30T00:57:47.344Z,17.58
2016-11-30T00:58:19.670Z,17.73
2016-11-30T00:58:51.993Z,17.68
2016-11-30T00:59:24.301Z,17.69
2016-11-30T00:59:56.618Z,17.68
2016-11-30T01:00:28.933Z,17.66
2016-11-30T01:01:01.260Z,17.69
2016-11-30T01:01:33.581Z,17.74
2016-11-30T01:02:05.912Z,17.66
2016-11-30T01:02:38.243Z,17.66
2016-11-30T01:03:10.557Z,17.76
2016-11-30T01:03:42.884Z,17.6
2016-11-30T01:04:15.207Z,17.73
2016-11-30T01:04:47.534Z,17.63
2016-11-30T01:05:19.859Z,17.65
2016-11-30T01:05:52.182Z,17.57
2016-11-30T01:06:24.500Z,17.58
2016-11-30T01:06:56.822Z,17.62
2016-11-30T01:07:29.129Z,17.66
2016-11-30T01:08:01.486Z,17.58
2016-11-30T01:08:33.820Z,17.6
2016-11-30T01:09:06.138Z,17.66
2016-11-30T01:09:38.463Z,17.68
2016-11-30T01:10:10.781Z,17.6
2016-11-30T01:10:43.087Z,17.62
2016-11-30T01:11:15.412Z,17.68
2016-11-30T01:11:47.734Z,17.73
2016-11-30T01:12:20.053Z,17.63
2016-11-30T01:12:52.383Z,17.62
2016-11-30T01:13:24.697Z,17.71
2016-11-30T01:13:57.016Z,17.63
2016-11-30T01:14:29.334Z,17.57
2016-11-30T01:15:01.681Z,17.65
2016-11-30T01:15:34.011Z,17.68
2016-11-30T01:16:06.322Z,17.58
2016-11-30T01:16:38.641Z,17.66
2016-11-30T01:17:10.943Z,17.58
2016-11-30T01:17:43.259Z,17.58
2016-11-30T01:18:15.580Z,17.69
2016-11-30T01:18:47.913Z,17.62
2016-11-30T01:19:20.230Z,17.73
2016-11-30T01:19:52.565Z,17.58
2016-11-30T01:20:24.883Z,17.65
2016-11-30T01:20:57.216Z,17.71
2016-11-30T01:21:29.537Z,17.6
2016-11-30T01:22:01.850Z,17.74
2016-11-30T01:22:34.165Z,17.63
2016-11-30T01:23:06.490Z,17.69
2016-11-30T01:23:38.802Z,17.62
2016-11-30T01:24:11.140Z,17.62
2016-11-30T01:24:43.444Z,17.69
2016-11-30T01:25:15.790Z,17.6
2016-11-30T01:25:48.115Z,17.58
2016-11-30T01:26:20.436Z,17.63
2016-11-30T01:26:52.757Z,17.71
2016-11-30T01:27:25.104Z,17.63
2016-11-30T01:27:57.417Z,17.68
2016-11-30T01:28:29.744Z,17.69
2016-11-30T01:29:02.055Z,17.73
2016-11-30T01:29:34.372Z,17.63
2016-11-30T01:30:06.693Z,17.65
2016-11-30T01:30:39.002Z,17.69
2016-11-30T01:31:11.323Z,17.68
2016-11-30T01:31:43.645Z,17.68
2016-11-30T01:32:15.982Z,17.66
2016-11-30T01:32:48.301Z,17.68
2016-11-30T01:33:20.607Z,17.66
2016-11-30T01:33:52.918Z,17.62
2016-11-30T01:34:25.241Z,17.68
2016-11-30T01:34:57.554Z,17.63
2016-11-30T01:35:29.876Z,17.63
2016-11-30T01:36:02.201Z,17.62
2016-11-30T01:36:34.505Z,17.65
2016-11-30T01:37:06.835Z,17.65
2016-11-30T01:37:39.173Z,17.63
2016-11-30T01:38:11.483Z,17.71
2016-11-30T01:38:43.809Z,17.65
2016-11-30T01:39:16.119Z,17.73
2016-11-30T01:39:48.456Z,17.68
2016-11-30T01:40:20.768Z,17.79
2016-11-30T01:40:53.088Z,17.68
2016-11-30T01:41:25.420Z,17.55
2016-11-30T01:41:57.735Z,17.62
2016-11-30T01:42:30.083Z,17.71
2016-11-30T01:43:02.418Z,17.65
2016-11-30T01:43:34.722Z,17.63
2016-11-30T01:44:07.054Z,17.74
2016-11-30T01:44:39.414Z,17.63
2016-11-30T01:45:11.724Z,17.65
2016-11-30T01:45:44.047Z,17.66
2016-11-30T01:46:16.359Z,17.69
2016-11-30T01:46:48.675Z,17.6
2016-11-30T01:47:20.995Z,17.73
2016-11-30T01:47:53.297Z,17.66
2016-11-30T01:48:25.619Z,17.6
2016-11-30T01:48:57.927Z,17.66
2016-11-30T01:49:30.273Z,17.71
2016-11-30T01:50:02.595Z,17.66
2016-11-30T01:50:34.945Z,17.63
2016-11-30T01:51:07.248Z,17.81
2016-11-30T01:51:39.578Z,17.66
2016-11-30T01:52:11.887Z,17.69
2016-11-30T01:52:44.217Z,17.63
2016-11-30T01:53:16.525Z,17.65
2016-11-30T01:53:48.837Z,17.68
2016-11-30T01:54:21.145Z,17.65
2016-11-30T01:54:53.464Z,17.69
2016-11-30T01:55:25.785Z,17.63
2016-11-30T01:55:58.114Z,17.65
2016-11-30T01:56:30.425Z,17.62
2016-11-30T01:57:02.759Z,17.63
2016-11-30T01:57:35.083Z,17.65
2016-11-30T01:58:07.401Z,17.68
2016-11-30T01:58:39.719Z,17.6
2016-11-30T01:59:12.043Z,17.62
2016-11-30T01:59:44.370Z,17.68
2016-11-30T02:00:16.684Z,17.66
2016-11-30T02:00:48.987Z,17.65
2016-11-30T02:01:21.338Z,17.71
2016-11-30T02:01:53.665Z,17.69
2016-11-30T02:02:25.994Z,17.62
2016-11-30T02:02:58.308Z,17.69
2016-11-30T02:03:30.672Z,17.68
2016-11-30T02:04:02.981Z,17.63
2016-11-30T02:04:35.302Z,17.63
2016-11-30T02:05:07.611Z,17.63
2016-11-30T02:05:39.928Z,17.6
2016-11-30T02:06:12.260Z,17.66
2016-11-30T02:06:44.580Z,17.66
2016-11-30T02:07:16.891Z,17.65
2016-11-30T02:07:49.200Z,17.68
2016-11-30T02:08:21.536Z,17.65
2016-11-30T02:08:53.842Z,17.63
2016-11-30T02:09:26.155Z,17.63
2016-11-30T02:09:58.465Z,17.68
2016-11-30T02:10:30.774Z,17.71
2016-11-30T02:11:03.073Z,17.69
2016-11-30T02:11:35.387Z,17.66
2016-11-30T02:12:07.715Z,17.63
2016-11-30T02:12:40.033Z,17.63
2016-11-30T02:13:12.350Z,17.66
2016-11-30T02:13:44.666Z,17.66
2016-11-30T02:14:17.016Z,17.63
2016-11-30T02:14:49.332Z,17.66
2016-11-30T02:15:21.656Z,17.69
2016-11-30T02:15:53.975Z,17.68
2016-11-30T02:16:26.296Z,17.66
2016-11-30T02:16:58.616Z,17.66
2016-11-30T02:17:30.949Z,17.63
2016-11-30T02:18:03.268Z,17.69
2016-11-30T02:18:35.586Z,17.66
2016-11-30T02:19:07.909Z,17.65
2016-11-30T02:19:40.229Z,17.63
2016-11-30T02:20:12.541Z,17.71
2016-11-30T02:20:44.871Z,17.62
2016-11-30T02:21:17.219Z,17.69
2016-11-30T02:21:49.549Z,17.71
2016-11-30T02:22:21.868Z,17.65
2016-11-30T02:22:54.200Z,17.66
2016-11-30T02:23:26.511Z,17.66
2016-11-30T02:23:58.815Z,17.62
2016-11-30T02:24:31.142Z,17.66
2016-11-30T02:25:03.461Z,17.73
2016-11-30T02:25:35.796Z,17.68
2016-11-30T02:26:08.110Z,17.6
2016-11-30T02:26:40.456Z,17.62
2016-11-30T02:27:12.780Z,17.55
2016-11-30T02:27:45.110Z,17.68
2016-11-30T02:28:17.460Z,17.69
2016-11-30T02:28:49.763Z,17.62
2016-11-30T02:29:22.068Z,17.63
2016-11-30T02:29:54.380Z,17.71
2016-11-30T02:30:26.744Z,17.71
2016-11-30T02:30:59.048Z,17.6
2016-11-30T02:31:31.355Z,17.71
2016-11-30T02:32:03.657Z,17.62
2016-11-30T02:32:35.968Z,17.66
2016-11-30T02:33:08.300Z,17.71
2016-11-30T02:33:40.620Z,17.71
2016-11-30T02:34:12.933Z,17.66
2016-11-30T02:34:45.241Z,17.68
2016-11-30T02:35:17.576Z,17.66
2016-11-30T02:35:49.893Z,17.68
2016-11-30T02:36:22.206Z,17.68
2016-11-30T02:36:54.525Z,17.63
2016-11-30T02:37:26.846Z,17.69
2016-11-30T02:37:59.176Z,17.69
2016-11-30T02:38:31.496Z,17.77
2016-11-30T02:39:03.821Z,17.71
2016-11-30T02:39:36.141Z,17.68
2016-11-30T02:40:08.464Z,17.68
2016-11-30T02:40:40.780Z,17.66
2016-11-30T02:41:13.126Z,17.63
2016-11-30T02:41:45.436Z,17.63
2016-11-30T02:42:17.760Z,17.66
2016-11-30T02:42:50.081Z,17.71
2016-11-30T02:43:22.396Z,17.69
2016-11-30T02:43:54.716Z,17.68
2016-11-30T02:44:27.034Z,17.65
2016-11-30T02:44:59.360Z,17.6
2016-11-30T02:45:31.733Z,17.66
2016-11-30T02:46:04.054Z,17.66
2016-11-30T02:46:36.374Z,17.68
2016-11-30T02:47:08.734Z,17.71
2016-11-30T02:47:41.047Z,17.63
2016-11-30T02:48:13.365Z,17.62
2016-11-30T02:48:45.672Z,17.69
2016-11-30T02:49:17.992Z,17.66
2016-11-30T02:49:50.306Z,17.69
2016-11-30T02:50:22.625Z,17.66
2016-11-30T02:50:54.953Z,17.65
2016-11-30T02:51:27.277Z,17.66
2016-11-30T02:51:59.597Z,17.74
2016-11-30T02:52:31.955Z,17.55
2016-11-30T02:53:04.275Z,17.65
2016-11-30T02:53:36.591Z,17.69
2016-11-30T02:54:08.918Z,17.63
2016-11-30T02:54:41.255Z,17.66
2016-11-30T02:55:13.567Z,17.63
2016-11-30T02:55:45.877Z,17.65
2016-11-30T02:56:18.181Z,17.6
2016-11-30T02:56:50.488Z,17.66
2016-11-30T02:57:22.792Z,17.65
2016-11-30T02:57:55.111Z,17.65
2016-11-30T02:58:27.434Z,17.71
2016-11-30T02:58:59.772Z,17.66
2016-11-30T02:59:32.086Z,17.66
2016-11-30T03:00:04.409Z,17.66
2016-11-30T03:00:36.738Z,17.68
2016-11-30T03:01:09.059Z,17.68
2016-11-30T03:01:41.398Z,17.73
2016-11-30T03:02:13.723Z,17.66
2016-11-30T03:02:46.054Z,17.69
2016-11-30T03:03:18.378Z,17.71
2016-11-30T03:03:50.698Z,17.68
2016-11-30T03:04:23.005Z,17.66
2016-11-30T03:04:55.302Z,17.65
2016-11-30T03:05:27.628Z,17.66
2016-11-30T03:05:59.952Z,17.71
2016-11-30T03:06:32.314Z,17.68
2016-11-30T03:07:04.631Z,17.63
2016-11-30T03:07:36.960Z,17.68
2016-11-30T03:08:09.281Z,17.65
2016-11-30T03:08:41.604Z,17.63
2016-11-30T03:09:13.919Z,17.65
2016-11-30T03:09:46.256Z,17.65
2016-11-30T03:10:18.589Z,17.68
2016-11-30T03:10:50.895Z,17.68
2016-11-30T03:11:23.219Z,17.65
2016-11-30T03:11:55.545Z,17.66
2016-11-30T03:12:27.864Z,17.66
2016-11-30T03:13:00.169Z,17.68
2016-11-30T03:13:32.492Z,17.66
2016-11-30T03:14:04.788Z,17.69
2016-11-30T03:14:37.116Z,17.68
2016-11-30T03:15:09.416Z,17.71
2016-11-30T03:15:41.726Z,17.66
2016-11-30T03:16:14.057Z,17.8
2016-11-30T03:16:46.370Z,17.73
2016-11-30T03:17:18.676Z,17.77
2016-11-30T03:17:50.992Z,17.8
2016-11-30T03:18:23.322Z,17.66
2016-11-30T03:18:55.648Z,17.76
2016-11-30T03:19:27.980Z,17.76
2016-11-30T03:20:00.277Z,17.77
2016-11-30T03:20:32.609Z,17.68
2016-11-30T03:21:04.925Z,17.77
2016-11-30T03:21:37.249Z,17.76
2016-11-30T03:22:09.561Z,17.76
2016-11-30T03:22:41.879Z,17.73
2016-11-30T03:23:14.183Z,17.74
2016-11-30T03:23:46.502Z,17.77
2016-11-30T03:24:18.803Z,17.77
2016-11-30T03:24:51.120Z,17.73
2016-11-30T03:25:23.439Z,17.73
2016-11-30T03:25:55.765Z,17.79
2016-11-30T03:26:28.075Z,17.77
2016-11-30T03:27:00.395Z,17.77
2016-11-30T03:27:32.719Z,17.77
2016-11-30T03:28:05.045Z,17.74
2016-11-30T03:28:37.367Z,17.73
2016-11-30T03:29:09.675Z,17.8
2016-11-30T03:29:42.006Z,17.69
2016-11-30T03:30:14.330Z,17.77
2016-11-30T03:30:46.664Z,17.8
2016-11-30T03:31:18.984Z,17.77
2016-11-30T03:31:51.317Z,17.74
2016-11-30T03:32:23.639Z,17.8
2016-11-30T03:32:55.950Z,17.84
2016-11-30T03:33:28.277Z,17.81
2016-11-30T03:34:00.604Z,17.79
2016-11-30T03:34:32.931Z,17.76
2016-11-30T03:35:05.252Z,17.79
2016-11-30T03:35:37.575Z,17.76
2016-11-30T03:36:09.882Z,17.86
2016-11-30T03:36:42.195Z,17.86
2016-11-30T03:37:14.519Z,17.77
2016-11-30T03:37:46.842Z,17.88
2016-11-30T03:38:19.155Z,17.83
2016-11-30T03:38:51.472Z,17.83
2016-11-30T03:39:23.797Z,17.87
2016-11-30T03:39:56.116Z,17.88
2016-11-30T03:40:28.467Z,17.86
2016-11-30T03:41:00.783Z,17.81
2016-11-30T03:43:28.484Z,17.87
2016-11-30T03:44:00.804Z,17.86
2016-11-30T03:44:33.112Z,17.92
2016-11-30T03:45:05.416Z,17.84
2016-11-30T03:45:37.728Z,17.84
2016-11-30T03:46:10.029Z,17.86
2016-11-30T03:46:42.346Z,17.83
2016-11-30T03:47:14.645Z,17.83
2016-11-30T03:47:46.953Z,17.94
2016-11-30T03:48:19.263Z,17.88
2016-11-30T03:48:51.616Z,17.87
2016-11-30T03:49:23.927Z,17.92
2016-11-30T03:49:56.232Z,17.88
2016-11-30T03:50:28.538Z,17.88
2016-11-30T03:51:00.860Z,17.88
2016-11-30T03:51:33.194Z,17.9
2016-11-30T03:52:05.496Z,17.9
2016-11-30T03:52:37.804Z,17.95
2016-11-30T03:53:10.102Z,17.95
2016-11-30T03:53:42.420Z,17.86
2016-11-30T03:54:14.729Z,17.88
2016-11-30T03:54:47.042Z,17.92
2016-11-30T03:55:19.351Z,17.94
2016-11-30T03:55:51.669Z,17.94
2016-11-30T03:56:23.986Z,17.92
2016-11-30T03:56:56.300Z,17.87
2016-11-30T03:57:28.609Z,17.88
2016-11-30T03:58:00.974Z,17.88
2016-11-30T03:58:33.309Z,17.86
2016-11-30T03:59:05.635Z,17.92
2016-11-30T03:59:37.948Z,17.9
2016-11-30T04:00:10.263Z,17.88
2016-11-30T04:00:42.573Z,17.9
2016-11-30T04:01:14.894Z,17.9
2016-11-30T04:01:47.942Z,17.95
2016-11-30T04:02:20.260Z,17.92
2016-11-30T04:02:52.576Z,17.96
2016-11-30T04:03:24.882Z,17.92
2016-11-30T04:03:57.191Z,17.95
2016-11-30T04:04:29.499Z,17.96
2016-11-30T04:05:01.827Z,17.94
2016-11-30T04:05:34.155Z,17.96
2016-11-30T04:06:06.478Z,17.98
2016-11-30T04:06:38.817Z,17.95
2016-11-30T04:07:11.132Z,17.94
2016-11-30T04:07:43.465Z,17.9
2016-11-30T04:08:15.776Z,17.95
2016-11-30T04:08:48.098Z,17.94
2016-11-30T04:09:20.423Z,17.98
2016-11-30T04:09:52.756Z,17.99
2016-11-30T04:10:25.080Z,17.92
2016-11-30T04:10:57.398Z,17.95
2016-11-30T04:11:29.754Z,18.01
2016-11-30T04:12:02.065Z,17.92
2016-11-30T04:12:34.405Z,17.98
2016-11-30T04:13:06.722Z,17.96
2016-11-30T04:13:39.055Z,17.99
2016-11-30T04:14:11.369Z,17.98
2016-11-30T04:14:43.690Z,17.96
2016-11-30T04:15:16.002Z,17.95
2016-11-30T04:15:48.325Z,17.86
2016-11-30T04:16:20.623Z,18.02
2016-11-30T04:16:52.939Z,17.92
2016-11-30T04:17:25.271Z,17.98
2016-11-30T04:17:57.579Z,17.99
2016-11-30T04:18:29.900Z,17.95
2016-11-30T04:19:02.229Z,18.02
2016-11-30T04:19:34.558Z,17.99
2016-11-30T04:20:06.863Z,17.95
2016-11-30T04:20:39.184Z,17.99
2016-11-30T04:21:11.497Z,17.95
2016-11-30T04:21:43.810Z,17.99
2016-11-30T04:22:16.120Z,17.99
2016-11-30T04:22:48.480Z,17.99
2016-11-30T04:23:20.806Z,17.98
2016-11-30T04:23:53.108Z,17.95
2016-11-30T04:24:25.425Z,18.03
2016-11-30T04:24:57.743Z,17.99
2016-11-30T04:25:30.057Z,18.01
2016-11-30T04:26:02.403Z,18.01
2016-11-30T04:26:34.727Z,17.98
2016-11-30T04:27:07.059Z,18.01
2016-11-30T04:27:39.386Z,18.01
2016-11-30T04:28:11.709Z,18.02
2016-11-30T04:28:44.023Z,18.01
2016-11-30T04:29:16.350Z,18.01
2016-11-30T04:29:48.666Z,17.98
2016-11-30T04:30:20.993Z,17.98
2016-11-30T04:30:53.345Z,17.92
2016-11-30T04:31:25.663Z,18.01
2016-11-30T04:31:57.992Z,17.98
2016-11-30T04:32:30.323Z,18.03
2016-11-30T04:33:02.632Z,18.03
2016-11-30T04:33:34.959Z,18.01
2016-11-30T04:34:07.277Z,18.01
2016-11-30T04:34:39.600Z,18.01
2016-11-30T04:35:11.919Z,17.99
2016-11-30T04:35:44.236Z,18.01
2016-11-30T04:36:16.571Z,18.02
2016-11-30T04:36:48.874Z,18.03
2016-11-30T04:37:21.197Z,17.94
2016-11-30T04:37:53.517Z,17.98
2016-11-30T04:38:25.814Z,18.03
2016-11-30T04:38:58.125Z,17.99
2016-11-30T04:39:30.425Z,18.01
2016-11-30T04:40:02.743Z,18.02
2016-11-30T04:40:35.068Z,18.05
2016-11-30T04:41:07.398Z,17.98
2016-11-30T04:41:39.713Z,17.99
2016-11-30T04:42:12.032Z,17.95
2016-11-30T04:42:44.347Z,18.05
2016-11-30T04:43:16.676Z,17.99
2016-11-30T04:43:48.981Z,18.03
2016-11-30T04:44:21.336Z,18.02
2016-11-30T04:44:53.664Z,18.02
2016-11-30T04:45:25.968Z,18.02
2016-11-30T04:45:58.296Z,18.01
2016-11-30T04:46:30.619Z,18.02
2016-11-30T04:47:02.939Z,18.01
2016-11-30T04:47:35.256Z,18.01
2016-11-30T04:48:07.616Z,18.05
2016-11-30T04:48:39.941Z,18.05
2016-11-30T04:49:12.262Z,18.03
2016-11-30T04:49:44.574Z,18.02
2016-11-30T04:50:16.880Z,18.03
2016-11-30T04:50:49.210Z,18.02
2016-11-30T04:51:21.580Z,18.02
2016-11-30T04:51:53.887Z,17.99
2016-11-30T04:52:26.197Z,18.05
2016-11-30T04:52:58.513Z,18.01
2016-11-30T04:53:30.841Z,18.02
2016-11-30T04:54:03.164Z,18.03
2016-11-30T04:54:35.483Z,17.99
2016-11-30T04:55:07.800Z,18.05
2016-11-30T04:55:40.152Z,18.02
2016-11-30T04:56:12.484Z,18.02
2016-11-30T04:56:44.792Z,18.01
2016-11-30T04:57:17.103Z,18.05
2016-11-30T04:57:49.431Z,18.05
2016-11-30T04:58:21.743Z,18.02
2016-11-30T04:58:54.080Z,17.99
2016-11-30T04:59:26.409Z,18.02
2016-11-30T04:59:58.726Z,18.08
2016-11-30T05:00:31.052Z,17.98
2016-11-30T05:01:03.376Z,18.02
2016-11-30T05:01:35.713Z,18.03
2016-11-30T05:02:08.048Z,18.02
2016-11-30T05:02:40.398Z,18.1
2016-11-30T05:03:12.697Z,17.96
2016-11-30T05:03:45.048Z,18.08
2016-11-30T05:04:17.378Z,17.99
2016-11-30T05:04:49.707Z,18.02
2016-11-30T05:05:22.024Z,18.06
2016-11-30T05:05:54.360Z,18.01
2016-11-30T05:06:26.686Z,18.01
2016-11-30T05:06:59.020Z,18.05
2016-11-30T05:07:31.340Z,18.02
2016-11-30T05:08:03.669Z,18.05
2016-11-30T05:08:35.993Z,17.99
2016-11-30T05:09:08.320Z,18.03
2016-11-30T05:09:40.635Z,18.01
2016-11-30T05:10:12.942Z,17.99
2016-11-30T05:10:45.921Z,18.03
2016-11-30T05:11:18.231Z,18.01
2016-11-30T05:11:50.553Z,18.02
2016-11-30T05:12:22.869Z,18.06
2016-11-30T05:12:55.195Z,18.06
2016-11-30T05:13:27.524Z,17.99
2016-11-30T05:13:59.842Z,17.99
2016-11-30T05:14:32.164Z,17.95
2016-11-30T05:15:04.486Z,17.95
2016-11-30T05:15:36.845Z,18.1
2016-11-30T05:16:09.163Z,18.05
2016-11-30T05:16:41.459Z,18.06
2016-11-30T05:17:13.794Z,17.98
2016-11-30T05:17:46.109Z,18.02
2016-11-30T05:18:18.427Z,17.96
2016-11-30T05:18:50.743Z,17.96
2016-11-30T05:19:23.069Z,17.94
2016-11-30T05:19:55.422Z,17.98
2016-11-30T05:20:27.743Z,17.99
2016-11-30T05:21:00.067Z,18.03
2016-11-30T05:21:32.423Z,17.98
2016-11-30T05:22:04.803Z,17.99
2016-11-30T05:22:37.132Z,17.9
2016-11-30T05:23:09.453Z,18.06
2016-11-30T05:23:41.769Z,17.96
2016-11-30T05:24:14.077Z,18.03
2016-11-30T05:24:46.374Z,17.92
2016-11-30T05:25:18.681Z,18.02
2016-11-30T05:25:51.003Z,17.96
2016-11-30T05:26:23.327Z,17.98
2016-11-30T05:26:55.645Z,18.02
2016-11-30T05:27:27.954Z,17.98
2016-11-30T05:28:00.286Z,17.95
2016-11-30T05:28:32.617Z,18.01
2016-11-30T05:29:04.938Z,17.99
2016-11-30T05:29:37.273Z,17.94
2016-11-30T05:30:09.592Z,17.98
2016-11-30T05:30:41.913Z,17.95
2016-11-30T05:31:14.243Z,17.96
2016-11-30T05:31:46.575Z,17.96
2016-11-30T05:32:18.899Z,17.96
2016-11-30T05:32:51.229Z,17.95
2016-11-30T05:33:23.532Z,17.96
2016-11-30T05:33:55.851Z,17.94
2016-11-30T05:34:28.167Z,17.9
2016-11-30T05:35:00.484Z,17.92
2016-11-30T05:35:32.817Z,17.95
2016-11-30T05:36:05.134Z,17.95
2016-11-30T05:36:37.453Z,17.99
2016-11-30T05:37:09.803Z,17.99
2016-11-30T05:37:42.129Z,17.96
2016-11-30T05:38:14.457Z,17.95
2016-11-30T05:38:46.776Z,17.98
2016-11-30T05:39:19.104Z,17.98
2016-11-30T05:39:51.413Z,17.9
2016-11-30T05:40:23.741Z,17.9
2016-11-30T05:40:56.059Z,17.94
2016-11-30T05:41:28.392Z,17.92
2016-11-30T05:42:00.730Z,17.95
2016-11-30T05:42:33.053Z,17.92
2016-11-30T05:43:05.367Z,17.92
2016-11-30T05:43:37.662Z,17.9
2016-11-30T05:44:09.982Z,17.88
2016-11-30T05:44:42.281Z,17.94
2016-11-30T05:45:14.595Z,17.99
2016-11-30T05:45:46.918Z,17.88
2016-11-30T05:46:19.233Z,17.94
2016-11-30T05:46:51.556Z,17.87
2016-11-30T05:47:23.875Z,17.94
2016-11-30T05:47:56.181Z,17.88
2016-11-30T05:48:28.509Z,17.94
2016-11-30T05:49:00.827Z,17.87
2016-11-30T05:49:33.139Z,17.88
2016-11-30T05:50:05.464Z,17.95
2016-11-30T05:50:37.788Z,17.94
2016-11-30T05:51:10.114Z,17.94
2016-11-30T05:51:42.438Z,17.86
2016-11-30T05:52:14.749Z,17.88
2016-11-30T05:52:47.077Z,17.92
2016-11-30T05:53:19.400Z,17.9
2016-11-30T05:53:51.719Z,17.92
2016-11-30T05:54:24.030Z,17.9
2016-11-30T05:54:56.359Z,17.87
2016-11-30T05:55:28.690Z,17.9
2016-11-30T05:56:01.005Z,17.92
2016-11-30T05:56:33.349Z,17.88
2016-11-30T05:57:05.675Z,17.87
2016-11-30T05:57:38.014Z,17.87
2016-11-30T05:58:10.338Z,17.9
2016-11-30T05:58:42.668Z,17.87
2016-11-30T05:59:14.996Z,17.84
2016-11-30T05:59:47.311Z,17.83
2016-11-30T06:00:19.652Z,17.9
2016-11-30T06:00:51.987Z,17.86
2016-11-30T06:01:24.299Z,17.86
2016-11-30T06:01:56.612Z,17.83
2016-11-30T06:02:28.967Z,17.9
2016-11-30T06:03:01.282Z,17.88
2016-11-30T06:03:33.596Z,17.83
2016-11-30T06:04:05.897Z,17.84
2016-11-30T06:04:38.215Z,17.81
2016-11-30T06:05:10.516Z,17.83
2016-11-30T06:05:42.847Z,17.88
2016-11-30T06:06:15.159Z,17.77
2016-11-30T06:06:47.468Z,17.84
2016-11-30T06:07:19.773Z,17.84
2016-11-30T06:07:52.083Z,17.86
2016-11-30T06:08:24.391Z,17.83
2016-11-30T06:08:56.710Z,17.79
2016-11-30T06:09:29.026Z,17.83
2016-11-30T06:10:01.359Z,17.8
2016-11-30T06:10:33.672Z,17.8
2016-11-30T06:11:06.024Z,17.79
2016-11-30T06:11:38.340Z,17.76
2016-11-30T06:12:10.672Z,17.8
2016-11-30T06:12:42.989Z,17.81
2016-11-30T06:13:15.325Z,17.74
2016-11-30T06:13:47.635Z,17.84
2016-11-30T06:14:19.944Z,17.81
2016-11-30T06:14:52.267Z,17.81
2016-11-30T06:15:24.603Z,17.83
2016-11-30T06:15:56.917Z,17.8
2016-11-30T06:16:29.247Z,17.76
2016-11-30T06:17:01.555Z,17.8
2016-11-30T06:17:33.883Z,17.81
2016-11-30T06:18:06.420Z,17.8
2016-11-30T06:18:38.774Z,17.68
2016-11-30T06:19:11.095Z,17.71
2016-11-30T06:19:44.502Z,17.77
2016-11-30T06:20:17.924Z,17.77
2016-11-30T06:20:50.995Z,17.79
2016-11-30T06:21:23.426Z,17.73
2016-11-30T06:21:55.763Z,17.79
2016-11-30T06:22:28.081Z,17.79
2016-11-30T06:23:00.401Z,17.71
2016-11-30T06:23:32.713Z,17.77
2016-11-30T06:24:05.030Z,17.8
2016-11-30T06:24:37.338Z,17.74
2016-11-30T06:25:09.673Z,17.71
2016-11-30T06:25:41.978Z,17.79
2016-11-30T06:26:14.283Z,17.79
2016-11-30T06:26:46.631Z,17.77
2016-11-30T06:27:20.135Z,17.83
2016-11-30T06:27:52.484Z,17.73
2016-11-30T06:28:24.790Z,17.66
2016-11-30T06:28:57.117Z,17.68
2016-11-30T06:29:29.439Z,17.8
2016-11-30T06:30:01.761Z,17.79
2016-11-30T06:30:34.064Z,17.71
2016-11-30T06:31:07.572Z,17.68
2016-11-30T06:31:46.068Z,17.8
2016-11-30T06:32:21.094Z,17.65
2016-11-30T06:32:54.472Z,17.73
2016-11-30T06:33:26.797Z,17.68
2016-11-30T06:33:59.243Z,17.77
2016-11-30T06:34:36.997Z,17.77
2016-11-30T06:35:16.547Z,17.66
2016-11-30T06:35:55.014Z,17.73
2016-11-30T06:36:33.509Z,17.68
2016-11-30T06:37:13.001Z,17.66
2016-11-30T06:37:48.788Z,17.66
2016-11-30T06:38:22.907Z,17.63
2016-11-30T06:39:00.493Z,17.69
2016-11-30T06:39:38.007Z,17.65
2016-11-30T06:40:14.502Z,17.65
2016-11-30T06:40:51.031Z,17.68
2016-11-30T06:41:27.991Z,17.68
2016-11-30T06:42:05.646Z,17.66
2016-11-30T06:42:43.009Z,17.65
2016-11-30T06:43:19.531Z,17.66
2016-11-30T06:43:52.136Z,17.68
2016-11-30T06:44:24.776Z,17.62
2016-11-30T06:44:58.658Z,17.65
2016-11-30T06:45:33.011Z,17.66
2016-11-30T06:46:05.554Z,17.65
2016-11-30T06:46:38.087Z,17.69
2016-11-30T06:47:10.631Z,17.65
2016-11-30T06:47:43.746Z,17.6
2016-11-30T06:48:16.038Z,17.69
2016-11-30T06:48:48.535Z,17.66
2016-11-30T06:49:22.008Z,17.68
2016-11-30T06:49:54.500Z,17.63
2016-11-30T06:50:26.854Z,17.65
2016-11-30T06:50:59.200Z,17.69
2016-11-30T06:51:31.516Z,17.63
2016-11-30T06:52:03.814Z,17.63
2016-11-30T06:52:36.173Z,17.66
2016-11-30T06:53:08.737Z,17.71
2016-11-30T06:53:41.160Z,17.69
2016-11-30T06:54:16.513Z,17.66
2016-11-30T06:54:50.455Z,17.58
2016-11-30T06:55:23.964Z,17.73
2016-11-30T06:55:57.053Z,17.71
2016-11-30T06:56:31.970Z,17.71
2016-11-30T06:57:04.271Z,17.71
2016-11-30T06:57:36.604Z,17.63
2016-11-30T06:58:08.912Z,17.65
2016-11-30T06:58:41.893Z,17.62
2016-11-30T06:59:14.192Z,17.6
2016-11-30T06:59:46.499Z,17.6
2016-11-30T07:00:18.862Z,17.57
2016-11-30T07:00:51.235Z,17.63